createdAt,value
2018-05-29T00:02:08.482Z,7.40
2018-05-29T00:04:36.083Z,7.23
2018-05-29T00:07:03.416Z,7.30
2018-05-29T00:09:30.766Z,6.93
2018-05-29T00:11:58.102Z,7.07
2018-05-29T00:14:25.470Z,7.40
2018-05-29T00:16:53.073Z,7.40
2018-05-29T00:19:20.731Z,7.40
2018-05-29T00:21:48.389Z,7.30
2018-05-29T00:24:15.706Z,6.75
2018-05-29T00:26:43.297Z,7.20
2018-05-29T00:29:10.667Z,7.67
2018-05-29T00:31:38.318Z,7.50
2018-05-29T00:34:05.638Z,7.45
2018-05-29T00:36:32.966Z,7.65
2018-05-29T00:39:00.299Z,7.70
2018-05-29T00:41:27.640Z,6.90
2018-05-29T00:43:55.298Z,7.70
2018-05-29T00:46:22.859Z,7.60
2018-05-29T00:48:50.523Z,7.70
2018-05-29T00:51:17.875Z,7.15
2018-05-29T00:53:45.235Z,7.62
2018-05-29T00:56:12.584Z,8.05
2018-05-29T00:58:39.953Z,7.40
2018-05-29T01:01:07.601Z,7.70
2018-05-29T01:03:34.910Z,7.80
2018-05-29T01:06:02.259Z,7.12
2018-05-29T01:08:29.625Z,7.80
2018-05-29T01:10:56.947Z,7.90
2018-05-29T01:13:24.592Z,7.80
2018-05-29T01:15:52.145Z,8.23
2018-05-29T01:18:19.478Z,7.30
2018-05-29T01:20:46.867Z,7.90
2018-05-29T01:23:14.247Z,7.67
2018-05-29T01:25:41.611Z,7.85
2018-05-29T01:28:09.225Z,7.47
2018-05-29T01:30:36.564Z,7.90
2018-05-29T01:33:04.145Z,7.80
2018-05-29T01:35:31.491Z,7.50
2018-05-29T01:37:58.846Z,7.60
2018-05-29T01:40:26.211Z,7.80
2018-05-29T01:42:53.558Z,7.72
2018-05-29T01:45:20.900Z,7.70
2018-05-29T01:47:48.583Z,7.80
2018-05-29T01:50:15.925Z,7.30
2018-05-29T01:52:43.278Z,7.68
2018-05-29T01:55:10.959Z,8.30
2018-05-29T01:57:38.625Z,7.50
2018-05-29T02:00:06.283Z,8.03
2018-05-29T02:02:33.606Z,7.90
2018-05-29T02:05:00.969Z,8.48
2018-05-29T02:07:28.324Z,7.97
2018-05-29T02:09:55.911Z,8.00
2018-05-29T02:12:23.279Z,7.60
2018-05-29T02:14:50.927Z,7.93
2018-05-29T02:17:18.281Z,7.43
2018-05-29T02:19:45.654Z,7.95
2018-05-29T02:22:12.983Z,7.40
2018-05-29T02:24:40.546Z,7.50
2018-05-29T02:27:08.232Z,7.30
2018-05-29T02:29:35.529Z,7.50
2018-05-29T02:32:02.878Z,7.10
2018-05-29T02:34:30.477Z,7.43
2018-05-29T02:36:58.147Z,7.67
2018-05-29T02:39:25.517Z,8.10
2018-05-29T02:41:52.814Z,8.20
2018-05-29T02:44:20.131Z,7.90
2018-05-29T02:46:47.472Z,7.80
2018-05-29T02:49:15.127Z,8.02
2018-05-29T02:51:42.473Z,7.80
2018-05-29T02:54:09.787Z,7.95
2018-05-29T02:56:37.129Z,7.53
2018-05-29T02:59:04.782Z,7.30
2018-05-29T03:01:32.367Z,7.60
2018-05-29T03:03:59.969Z,9.33
2018-05-29T03:06:27.285Z,11.25
2018-05-29T03:08:54.997Z,12.65
2018-05-29T03:11:22.659Z,12.23
2018-05-29T03:13:50.215Z,9.60
2018-05-29T03:16:17.885Z,9.30
2018-05-29T03:18:45.246Z,8.40
2018-05-29T03:21:12.587Z,8.23
2018-05-29T03:23:39.950Z,8.77
2018-05-29T03:26:07.368Z,8.70
2018-05-29T03:28:34.707Z,7.85
2018-05-29T03:31:02.031Z,7.80
2018-05-29T03:33:29.671Z,8.25
2018-05-29T03:35:57.230Z,7.80
2018-05-29T03:38:24.545Z,8.10
2018-05-29T03:40:51.915Z,7.32
2018-05-29T03:43:19.503Z,8.32
2018-05-29T03:45:47.170Z,7.97
2018-05-29T03:48:14.497Z,8.00
2018-05-29T03:50:42.083Z,7.90
2018-05-29T03:53:09.747Z,7.95
2018-05-29T03:55:37.098Z,8.05
2018-05-29T03:58:04.448Z,7.50
2018-05-29T04:00:31.816Z,7.70
2018-05-29T04:02:59.141Z,7.78
2018-05-29T04:05:26.441Z,8.40
2018-05-29T04:07:54.194Z,8.10
2018-05-29T04:10:21.803Z,7.80
2018-05-29T04:12:49.402Z,7.95
2018-05-29T04:15:16.710Z,7.80
2018-05-29T04:17:44.423Z,7.10
2018-05-29T04:20:11.767Z,8.00
2018-05-29T04:22:39.080Z,7.30
2018-05-29T04:25:06.405Z,7.65
2018-05-29T04:27:33.966Z,8.00
2018-05-29T04:30:01.535Z,7.55
2018-05-29T04:32:28.878Z,7.70
2018-05-29T04:34:56.244Z,7.87
2018-05-29T04:37:23.586Z,7.87
2018-05-29T04:39:50.951Z,7.50
2018-05-29T04:42:18.257Z,7.70
2018-05-29T04:44:45.596Z,7.90
2018-05-29T04:47:13.197Z,7.80
2018-05-29T04:49:40.571Z,7.50
2018-05-29T04:52:08.214Z,8.00
2018-05-29T04:54:35.579Z,8.00
2018-05-29T04:57:02.949Z,7.80
2018-05-29T04:59:30.267Z,7.70
2018-05-29T05:01:57.593Z,8.23
2018-05-29T05:04:24.903Z,7.80
2018-05-29T05:06:52.260Z,7.97
2018-05-29T05:09:19.903Z,7.68
2018-05-29T05:11:47.221Z,7.10
2018-05-29T05:14:14.566Z,7.90
2018-05-29T05:16:41.954Z,7.62
2018-05-29T05:19:09.636Z,7.30
2018-05-29T05:21:36.947Z,7.40
2018-05-29T05:24:04.274Z,7.37
2018-05-29T05:26:31.901Z,7.70
2018-05-29T05:28:59.242Z,7.90
2018-05-29T05:31:26.586Z,7.70
2018-05-29T05:33:53.931Z,7.00
2018-05-29T05:36:21.636Z,7.40
2018-05-29T05:38:49.300Z,7.60
2018-05-29T05:41:16.652Z,7.80
2018-05-29T05:43:43.954Z,7.60
2018-05-29T05:46:11.566Z,7.07
2018-05-29T05:48:38.894Z,7.30
2018-05-29T05:51:06.270Z,7.40
2018-05-29T05:53:33.626Z,7.47
2018-05-29T05:56:00.941Z,7.00
2018-05-29T05:58:28.338Z,6.85
2018-05-29T06:00:55.659Z,7.00
2018-05-29T06:03:22.965Z,7.20
2018-05-29T06:05:50.311Z,6.70
2018-05-29T06:08:17.654Z,6.87
2018-05-29T06:10:45.013Z,7.00
2018-05-29T06:13:12.684Z,6.85
2018-05-29T06:15:40.022Z,7.25
2018-05-29T06:18:07.414Z,6.70
2018-05-29T06:20:34.793Z,6.30
2018-05-29T06:23:02.183Z,6.20
2018-05-29T06:25:29.512Z,6.72
2018-05-29T06:27:56.834Z,6.32
2018-05-29T06:30:24.191Z,6.22
2018-05-29T06:32:51.595Z,6.53
2018-05-29T06:35:19.000Z,6.50
2018-05-29T06:37:46.395Z,6.60
2018-05-29T06:40:13.807Z,6.40
2018-05-29T06:42:41.420Z,6.12
2018-05-29T06:45:09.253Z,6.30
2018-05-29T06:47:36.784Z,6.87
2018-05-29T06:50:04.139Z,6.40
2018-05-29T06:52:31.607Z,6.30
2018-05-29T06:54:59.004Z,6.50
2018-05-29T06:57:26.353Z,6.20
2018-05-29T06:59:53.732Z,6.40
2018-05-29T07:02:21.165Z,5.80
2018-05-29T07:04:48.482Z,6.18
2018-05-29T07:07:15.875Z,5.90
2018-05-29T07:09:43.271Z,6.50
2018-05-29T07:12:10.614Z,5.78
2018-05-29T07:14:38.047Z,5.37
2018-05-29T07:17:05.351Z,5.90
2018-05-29T07:19:32.725Z,5.70
2018-05-29T07:22:00.124Z,5.70
2018-05-29T07:24:27.478Z,5.75
2018-05-29T07:26:54.876Z,5.60
2018-05-29T07:29:22.244Z,5.22
2018-05-29T07:31:49.616Z,5.30
2018-05-29T07:34:16.956Z,5.80
2018-05-29T07:36:44.343Z,5.60
2018-05-29T07:39:11.775Z,5.57
2018-05-29T07:41:39.138Z,5.67
2018-05-29T07:44:06.487Z,5.13
2018-05-29T07:46:33.869Z,4.85
2018-05-29T07:49:01.224Z,5.00
2018-05-29T07:51:28.618Z,5.00
2018-05-29T07:53:55.972Z,5.07
2018-05-29T07:56:23.341Z,5.70
2018-05-29T07:58:50.735Z,5.20
2018-05-29T08:01:18.362Z,4.82
2018-05-29T08:03:45.685Z,5.10
2018-05-29T08:06:13.048Z,5.07
2018-05-29T08:08:40.745Z,4.93
2018-05-29T08:11:08.109Z,4.75
2018-05-29T08:13:35.533Z,4.72
2018-05-29T08:16:03.711Z,4.80
2018-05-29T08:18:31.121Z,4.70
2018-05-29T08:20:58.843Z,4.80
2018-05-29T08:23:26.211Z,5.20
2018-05-29T08:25:53.575Z,4.65
2018-05-29T08:28:20.935Z,4.90
2018-05-29T08:30:48.238Z,4.28
2018-05-29T08:33:15.546Z,4.70
2018-05-29T08:35:42.886Z,4.47
2018-05-29T08:38:10.529Z,4.45
2018-05-29T08:40:38.094Z,4.22
2018-05-29T08:43:05.426Z,4.45
2018-05-29T08:45:33.107Z,4.90
2018-05-29T08:48:00.690Z,4.60
2018-05-29T08:50:28.046Z,4.55
2018-05-29T08:52:55.384Z,4.25
2018-05-29T08:55:22.934Z,4.47
2018-05-29T08:57:50.307Z,4.40
2018-05-29T09:00:17.602Z,4.20
2018-05-29T09:02:44.947Z,4.18
2018-05-29T09:05:12.274Z,4.25
2018-05-29T09:07:39.918Z,4.60
2018-05-29T09:10:07.279Z,4.23
2018-05-29T09:12:34.936Z,4.30
2018-05-29T09:15:02.496Z,4.10
2018-05-29T09:17:30.059Z,4.40
2018-05-29T09:19:57.424Z,4.10
2018-05-29T09:22:24.771Z,3.93
2018-05-29T09:24:52.107Z,4.20
2018-05-29T09:27:19.513Z,3.83
2018-05-29T09:29:46.886Z,4.40
2018-05-29T09:32:14.420Z,3.73
2018-05-29T09:34:41.745Z,3.85
2018-05-29T09:37:09.083Z,4.22
2018-05-29T09:39:36.432Z,3.97
2018-05-29T09:42:03.781Z,3.95
2018-05-29T09:44:31.130Z,3.90
2018-05-29T09:46:58.450Z,4.35
2018-05-29T09:49:26.084Z,3.73
2018-05-29T09:51:53.408Z,3.50
2018-05-29T09:54:20.993Z,3.83
2018-05-29T09:56:48.658Z,3.80
2018-05-29T09:59:16.335Z,3.60
2018-05-29T10:01:43.982Z,3.60
2018-05-29T10:04:11.351Z,3.40
2018-05-29T10:06:38.683Z,2.97
2018-05-29T10:09:06.030Z,3.35
2018-05-29T10:11:33.610Z,3.30
2018-05-29T10:14:00.916Z,3.60
2018-05-29T10:16:28.283Z,2.90
2018-05-29T10:18:55.645Z,3.15
2018-05-29T10:21:22.971Z,2.90
2018-05-29T10:23:50.501Z,2.80
2018-05-29T10:26:17.830Z,2.75
2018-05-29T10:28:45.516Z,2.97
2018-05-29T10:31:12.822Z,3.30
2018-05-29T10:33:40.174Z,2.95
2018-05-29T10:36:07.503Z,3.00
2018-05-29T10:38:34.851Z,3.15
2018-05-29T10:41:02.484Z,3.20
2018-05-29T10:43:29.785Z,3.15
2018-05-29T10:45:57.087Z,3.00
2018-05-29T10:48:24.426Z,3.00
2018-05-29T10:50:52.014Z,3.00
2018-05-29T10:53:19.364Z,2.70
2018-05-29T10:55:46.713Z,3.00
2018-05-29T10:58:14.019Z,2.67
2018-05-29T11:00:41.638Z,3.00
2018-05-29T11:03:09.000Z,2.90
2018-05-29T11:05:36.319Z,2.60
2018-05-29T11:08:03.905Z,2.67
2018-05-29T11:10:31.281Z,2.70
2018-05-29T11:12:58.922Z,2.63
2018-05-29T11:15:26.258Z,2.70
2018-05-29T11:17:53.942Z,2.70
2018-05-29T11:20:21.275Z,2.28
2018-05-29T11:22:48.603Z,2.70
2018-05-29T11:25:15.951Z,2.40
2018-05-29T11:27:43.297Z,2.70
2018-05-29T11:30:10.639Z,2.60
2018-05-29T11:32:38.013Z,2.40
2018-05-29T11:35:05.347Z,2.50
2018-05-29T11:37:32.886Z,2.55
2018-05-29T11:40:00.206Z,2.40
2018-05-29T11:42:27.849Z,2.30
2018-05-29T11:44:55.467Z,2.22
2018-05-29T11:47:22.817Z,2.30
2018-05-29T11:49:50.166Z,2.20
2018-05-29T11:52:17.514Z,2.30
2018-05-29T11:54:44.839Z,2.62
2018-05-29T11:57:12.138Z,2.50
2018-05-29T11:59:39.696Z,2.45
2018-05-29T12:02:07.367Z,2.37
2018-05-29T12:04:34.918Z,2.43
2018-05-29T12:07:02.262Z,2.30
2018-05-29T12:09:29.634Z,2.10
2018-05-29T12:12:03.235Z,2.28
2018-05-29T12:14:30.562Z,2.20
2018-05-29T12:16:57.880Z,2.20
2018-05-29T12:19:25.214Z,1.80
2018-05-29T12:21:52.538Z,2.10
2018-05-29T12:24:19.912Z,2.00
2018-05-29T12:26:47.235Z,2.10
2018-05-29T12:29:14.851Z,2.20
2018-05-29T12:31:42.259Z,2.35
2018-05-29T12:34:09.570Z,2.20
2018-05-29T12:36:37.050Z,2.35
2018-05-29T12:39:04.493Z,2.20
2018-05-29T12:41:31.848Z,2.42
2018-05-29T12:43:59.218Z,2.33
2018-05-29T12:46:26.686Z,2.60
2018-05-29T12:48:53.906Z,2.10
2018-05-29T12:51:21.222Z,1.75
2018-05-29T12:53:48.567Z,2.10
2018-05-29T12:56:15.947Z,2.00
2018-05-29T12:58:43.275Z,2.00
2018-05-29T13:01:10.851Z,1.95
2018-05-29T13:03:38.191Z,2.28
2018-05-29T13:06:05.543Z,1.95
2018-05-29T13:08:32.876Z,2.30
2018-05-29T13:11:00.203Z,2.60
2018-05-29T13:13:27.559Z,2.10
2018-05-29T13:15:55.190Z,1.80
2018-05-29T13:18:22.855Z,1.92
2018-05-29T13:20:50.208Z,1.90
2018-05-29T13:23:17.539Z,2.20
2018-05-29T13:25:44.838Z,2.20
2018-05-29T13:28:12.470Z,2.00
2018-05-29T13:30:39.773Z,2.50
2018-05-29T13:33:07.080Z,2.10
2018-05-29T13:35:34.435Z,2.20
2018-05-29T13:38:01.739Z,2.37
2018-05-29T13:40:29.355Z,2.30
2018-05-29T13:42:56.678Z,2.12
2018-05-29T13:45:24.008Z,2.20
2018-05-29T13:47:51.398Z,2.10
2018-05-29T13:50:19.082Z,2.50
2018-05-29T13:52:46.747Z,2.40
2018-05-29T13:55:14.078Z,2.30
2018-05-29T13:57:41.673Z,2.17
2018-05-29T14:00:09.012Z,2.08
2018-05-29T14:02:36.395Z,2.50
2018-05-29T14:05:03.746Z,2.37
2018-05-29T14:07:31.390Z,2.25
2018-05-29T14:09:58.705Z,2.60
2018-05-29T14:12:26.063Z,3.30
2018-05-29T14:14:53.411Z,2.80
2018-05-29T14:17:20.784Z,3.50
2018-05-29T14:19:48.367Z,4.10
2018-05-29T14:22:15.703Z,2.40
2018-05-29T14:24:43.031Z,3.45
2018-05-29T14:27:10.350Z,2.62
2018-05-29T14:29:38.016Z,4.70
2018-05-29T14:32:05.309Z,2.20
2018-05-29T14:34:32.870Z,2.90
2018-05-29T14:37:00.203Z,3.37
2018-05-29T14:39:27.517Z,2.90
2018-05-29T14:41:54.869Z,2.85
2018-05-29T14:44:22.166Z,2.50
2018-05-29T14:46:49.478Z,2.53
2018-05-29T14:49:17.037Z,2.20
2018-05-29T14:51:44.706Z,2.00
2018-05-29T14:54:12.304Z,2.10
2018-05-29T14:56:39.659Z,2.20
2018-05-29T14:59:06.966Z,2.40
2018-05-29T15:01:35.039Z,2.22
2018-05-29T15:04:02.737Z,2.45
2018-05-29T15:06:30.263Z,2.22
2018-05-29T15:08:57.595Z,2.30
2018-05-29T15:11:24.917Z,1.75
2018-05-29T15:13:52.248Z,2.12
2018-05-29T15:16:19.546Z,1.92
2018-05-29T15:18:46.877Z,2.00
2018-05-29T15:21:14.174Z,1.90
2018-05-29T15:23:41.491Z,1.80
2018-05-29T15:26:08.882Z,2.20
2018-05-29T15:28:36.193Z,1.70
2018-05-29T15:31:03.493Z,1.73
2018-05-29T15:33:30.825Z,1.90
2018-05-29T15:35:58.126Z,1.87
2018-05-29T15:38:25.651Z,1.80
2018-05-29T15:40:52.978Z,2.10
2018-05-29T15:43:20.539Z,2.10
2018-05-29T15:45:47.835Z,2.20
2018-05-29T15:48:15.447Z,1.87
2018-05-29T15:50:42.747Z,1.80
2018-05-29T15:53:10.329Z,1.90
2018-05-29T15:55:37.661Z,1.80
2018-05-29T15:58:04.995Z,1.77
2018-05-29T16:00:32.323Z,1.87
2018-05-29T16:02:59.865Z,1.80
2018-05-29T16:05:27.207Z,1.62
2018-05-29T16:07:54.543Z,1.50
2018-05-29T16:10:21.917Z,1.77
2018-05-29T16:12:49.437Z,2.10
2018-05-29T16:15:16.740Z,2.05
2018-05-29T16:17:44.093Z,1.87
2018-05-29T16:20:11.389Z,1.90
2018-05-29T16:22:38.719Z,1.83
2018-05-29T16:25:06.087Z,2.10
2018-05-29T16:27:33.419Z,2.00
2018-05-29T16:30:00.719Z,2.00
2018-05-29T16:32:28.073Z,2.00
2018-05-29T16:34:55.407Z,1.80
2018-05-29T16:37:22.710Z,1.80
2018-05-29T16:39:50.074Z,2.00
2018-05-29T16:42:17.638Z,2.30
2018-05-29T16:44:44.933Z,2.55
2018-05-29T16:47:12.265Z,2.10
2018-05-29T16:49:39.598Z,1.90
2018-05-29T16:52:06.928Z,2.00
2018-05-29T16:54:34.265Z,1.90
2018-05-29T16:57:01.583Z,2.10
2018-05-29T16:59:28.886Z,2.00
2018-05-29T17:01:56.218Z,2.20
2018-05-29T17:04:23.524Z,2.20
2018-05-29T17:06:50.834Z,2.20
2018-05-29T17:09:18.339Z,2.00
2018-05-29T17:11:45.773Z,2.00
2018-05-29T17:14:13.111Z,2.10
2018-05-29T17:16:40.472Z,1.80
2018-05-29T17:19:07.778Z,1.98
2018-05-29T17:21:35.111Z,2.20
2018-05-29T17:24:02.476Z,2.40
2018-05-29T17:26:29.832Z,2.20
2018-05-29T17:28:57.155Z,1.83
2018-05-29T17:31:24.481Z,2.00
2018-05-29T17:33:51.816Z,2.10
2018-05-29T17:36:19.114Z,1.85
2018-05-29T17:38:46.472Z,2.00
2018-05-29T17:41:14.016Z,1.90
2018-05-29T17:43:41.355Z,2.03
2018-05-29T17:46:08.778Z,2.30
2018-05-29T17:48:36.078Z,2.00
2018-05-29T17:51:03.409Z,2.10
2018-05-29T17:53:30.764Z,2.10
2018-05-29T17:55:58.079Z,1.98
2018-05-29T17:58:25.642Z,1.92
2018-05-29T18:00:52.966Z,2.00
2018-05-29T18:03:20.558Z,1.92
2018-05-29T18:05:47.891Z,1.80
2018-05-29T18:08:15.268Z,2.03
2018-05-29T18:10:42.940Z,1.83
2018-05-29T18:13:10.241Z,2.40
2018-05-29T18:15:37.817Z,1.85
2018-05-29T18:18:05.179Z,1.92
2018-05-29T18:20:32.510Z,2.03
2018-05-29T18:22:59.863Z,2.30
2018-05-29T18:25:27.190Z,2.17
2018-05-29T18:27:54.541Z,2.10
2018-05-29T18:30:21.924Z,2.33
2018-05-29T18:32:49.268Z,2.20
2018-05-29T18:35:16.616Z,2.80
2018-05-29T18:37:44.001Z,2.60
2018-05-29T18:40:11.348Z,2.70
2018-05-29T18:42:38.932Z,2.10
2018-05-29T18:45:06.265Z,2.33
2018-05-29T18:47:33.594Z,3.25
2018-05-29T18:50:01.247Z,2.47
2018-05-29T18:52:28.624Z,2.45
2018-05-29T18:54:55.964Z,3.25
2018-05-29T18:57:23.614Z,3.50
2018-05-29T18:59:50.954Z,4.50
2018-05-29T19:02:18.270Z,3.40
2018-05-29T19:04:45.619Z,4.18
2018-05-29T19:07:12.948Z,6.07
2018-05-29T19:09:40.472Z,4.70
2018-05-29T19:12:07.819Z,3.05
2018-05-29T19:14:35.088Z,3.37
2018-05-29T19:17:02.447Z,2.70
2018-05-29T19:19:29.737Z,2.70
2018-05-29T19:21:57.057Z,5.75
2018-05-29T19:24:24.364Z,3.08
2018-05-29T19:26:51.845Z,3.00
2018-05-29T19:29:19.422Z,4.30
2018-05-29T19:31:46.732Z,4.53
2018-05-29T19:34:14.025Z,3.47
2018-05-29T19:36:41.337Z,4.05
2018-05-29T19:39:08.656Z,3.33
2018-05-29T19:41:35.933Z,3.30
2018-05-29T19:44:03.266Z,3.87
2018-05-29T19:46:30.598Z,3.08
2018-05-29T19:48:58.262Z,3.10
2018-05-29T19:51:25.537Z,3.40
2018-05-29T19:53:52.853Z,3.15
2018-05-29T19:56:20.180Z,3.70
2018-05-29T19:58:47.459Z,3.10
2018-05-29T20:01:15.013Z,3.15
2018-05-29T20:03:42.330Z,3.40
2018-05-29T20:06:09.642Z,3.70
2018-05-29T20:08:36.932Z,3.40
2018-05-29T20:11:04.224Z,4.00
2018-05-29T20:13:31.817Z,4.32
2018-05-29T20:15:59.129Z,3.70
2018-05-29T20:18:26.441Z,3.40
2018-05-29T20:20:54.133Z,3.70
2018-05-29T20:23:21.482Z,4.03
2018-05-29T20:25:49.000Z,3.90
2018-05-29T20:28:16.353Z,3.35
2018-05-29T20:30:43.846Z,3.45
2018-05-29T20:33:11.231Z,3.20
2018-05-29T20:35:38.513Z,3.70
2018-05-29T20:38:05.814Z,3.47
2018-05-29T20:40:33.361Z,3.50
2018-05-29T20:43:00.641Z,3.20
2018-05-29T20:45:27.994Z,7.43
2018-05-29T20:47:55.306Z,5.35
2018-05-29T20:50:22.619Z,3.40
2018-05-29T20:52:50.217Z,3.20
2018-05-29T20:55:17.527Z,3.10
2018-05-29T20:57:44.781Z,3.20
2018-05-29T21:00:12.142Z,3.17
2018-05-29T21:02:39.508Z,3.03
2018-05-29T21:05:06.814Z,3.30
2018-05-29T21:07:34.114Z,3.55
2018-05-29T21:10:01.413Z,3.35
2018-05-29T21:12:28.934Z,3.10
2018-05-29T21:14:56.220Z,3.50
2018-05-29T21:17:23.498Z,3.30
2018-05-29T21:19:51.074Z,3.17
2018-05-29T21:22:18.341Z,3.45
2018-05-29T21:24:45.663Z,3.10
2018-05-29T21:27:12.968Z,3.55
2018-05-29T21:29:40.261Z,14.57
2018-05-29T21:32:07.613Z,7.45
2018-05-29T21:34:34.908Z,3.58
2018-05-29T21:37:02.509Z,4.18
2018-05-29T21:39:29.839Z,3.50
2018-05-29T21:41:57.341Z,3.67
2018-05-29T21:44:24.666Z,3.60
2018-05-29T21:46:51.958Z,3.75
2018-05-29T21:49:19.264Z,3.60
2018-05-29T21:51:46.850Z,3.23
2018-05-29T21:54:14.112Z,3.60
2018-05-29T21:56:41.657Z,3.30
2018-05-29T21:59:08.957Z,3.33
2018-05-29T22:01:36.283Z,3.00
2018-05-29T22:04:03.551Z,3.53
2018-05-29T22:06:30.865Z,3.47
2018-05-29T22:08:58.190Z,3.33
2018-05-29T22:11:25.457Z,3.47
2018-05-29T22:13:52.842Z,3.20
2018-05-29T22:16:20.117Z,3.40
2018-05-29T22:18:47.752Z,3.00
2018-05-29T22:21:15.311Z,3.10
2018-05-29T22:23:42.617Z,3.20
2018-05-29T22:26:10.001Z,3.08
2018-05-29T22:28:37.298Z,3.45
2018-05-29T22:31:04.634Z,3.72
2018-05-29T22:33:32.118Z,3.05
2018-05-29T22:36:02.901Z,3.10
2018-05-29T22:38:30.401Z,3.25
2018-05-29T22:40:58.448Z,3.40
2018-05-29T22:43:25.831Z,3.20
2018-05-29T22:45:53.154Z,2.92
2018-05-29T22:48:20.475Z,3.77
2018-05-29T22:50:48.095Z,3.20
2018-05-29T22:53:15.385Z,3.50
2018-05-29T22:55:42.706Z,3.95
2018-05-29T22:58:10.086Z,3.37
2018-05-29T23:00:37.447Z,3.50
2018-05-29T23:03:04.778Z,3.17
2018-05-29T23:05:32.099Z,3.60
2018-05-29T23:07:59.685Z,3.25
2018-05-29T23:10:26.998Z,3.40
2018-05-29T23:12:54.593Z,3.50
2018-05-29T23:15:22.253Z,3.15
2018-05-29T23:17:49.594Z,3.53
2018-05-29T23:20:16.993Z,2.90
2018-05-29T23:22:44.335Z,3.40
2018-05-29T23:25:11.703Z,3.40
2018-05-29T23:27:39.338Z,2.90
2018-05-29T23:30:07.005Z,2.90
2018-05-29T23:32:34.369Z,3.47
2018-05-29T23:35:02.018Z,3.20
2018-05-29T23:37:29.336Z,3.30
2018-05-29T23:39:56.664Z,3.17
2018-05-29T23:42:23.969Z,3.00
2018-05-29T23:44:51.546Z,3.65
2018-05-29T23:47:18.895Z,3.60
2018-05-29T23:49:46.559Z,3.17
2018-05-29T23:52:14.122Z,3.20
2018-05-29T23:54:41.441Z,3.22
2018-05-29T23:57:09.037Z,3.40
2018-05-29T23:59:36.391Z,3.05
